Clarks Hill, IN (47930)

12:40 AM EDT on March 28, 2015 (GMT -0400)
Lafayette, Indiana area | | Change Station
CLOSE
Current Station
Personal Weather Station
Location: Romney, IN
Elevation: 755 ft
Nearby Weather Stations
Active Advisory: Flood Warning

Elev 755 ft 40.26 °N, 86.89 °W | Updated 6 minutes ago

Clear
Clear
22.2 °F
Feels Like 17 °F
N
4.0
Wind Variable Wind from NNE
Gusts 11.0 mph

Today
High -- | Low -- °F
--% Chance of Precip.
Yesterday
High -- | Low -- °F
Precip. -- in
7:37 AM 8:07 PM
First Quarter, 59% visible
Pressure 30.22 in
Visibility 10.0 miles
Clouds Clear
Windchill 17 °F
Dew Point 15 °F
Humidity 74%
Rainfall 0.00 in
Snow Depth Not available.
UV 0 out of 12
Pollen 5.80 out of 12
Air Quality Not available.
Flu Activity Not available.
METAR KLAF 280354Z AUTO 36006KT 10SM CLR M06/M11 A3020 RMK AO2 SLP234 T10611111 TSNO

More Conditions Fewer Conditions

Pressure 30.22 in
Visibility 10.0 miles
Clouds Clear
Windchill 17 °F
Dew Point 15 °F
Humidity 74%
Rainfall 0.00 in
Snow Depth Not available.
UV 0 out of 12
Pollen 5.80 out of 12
Air Quality Not available.
Flu Activity Not available.
METAR KLAF 280354Z AUTO 36006KT 10SM CLR M06/M11 A3020 RMK AO2 SLP234 T10611111 TSNO

More Conditions Fewer Conditions

10-Day Weather Forecast

Almanac

Astronomy

Mar. 28, 2015 Rise Set
Actual Time
Civil Twilight
Nautical Twilight
Astronomical Twilight
Moon
Length of Visible Light
Length of Day
Tomorrow will be .
, % of the Moon is Illuminated

Today's Extremes

State Highs State Lows

Community

WunderPhotos

Upload Photos

1,808,928 photos uploaded!

WunderBlogs® & News

Nearby

Air Quality

  Air Quality AQ Index Pollutant
Not available.

Snow Depth

Station Depth Elevation

Earthquake Activity

City Distance Mag. Time & Date
Minimum magnitude displayed is 2.5.

Coastal Water Temperatures

Place Temperature

Stations

Nearby Weather Stations

Station Location Temp. Windchill Dew Point Humidity Wind Precip. Elev Updated Type
                   
Flood Warning
Statement as of 10:50 AM EDT on March 27, 2015

The Flood Warning continues for
the Wabash River at Lafayette.
* Until late Sunday night.
* At 10:31 am Friday the stage was 12.0 feet.
* Flood stage is 11.0 feet.
* Minor flooding is occurring and minor flooding is forecast.
* Forecast... the river will continue rising to near 13.5 feet by
after midnight tomorrow. The river will fall below flood stage
Sunday afternoon.
* At 14.0 feet... lowland flooding is in progress. High water affects
river Cabins near north 9th street. Low County roads are nearly
impassable. Tapawingo park in West Lafayette begins to flood.


Lat... Lon 4056 8673 4048 8688 4040 8709 4033 8709
      4040 8688 4054 8670